createdAt,value
2018-07-24T00:01:59.649Z,17.80
2018-07-24T00:04:28.661Z,17.80
2018-07-24T00:06:57.319Z,17.60
2018-07-24T00:09:25.701Z,17.70
2018-07-24T00:11:54.086Z,17.70
2018-07-24T00:14:22.743Z,17.70
2018-07-24T00:16:51.253Z,17.60
2018-07-24T00:19:20.136Z,17.60
2018-07-24T00:21:48.558Z,17.60
2018-07-24T00:24:17.041Z,17.70
2018-07-24T00:26:45.441Z,17.70
2018-07-24T00:29:14.267Z,17.60
2018-07-24T00:31:42.660Z,17.60
2018-07-24T00:34:11.118Z,17.60
2018-07-24T00:36:39.539Z,17.60
2018-07-24T00:39:08.690Z,17.50
2018-07-24T00:41:37.624Z,17.40
2018-07-24T00:44:06.425Z,17.50
2018-07-24T00:46:35.088Z,17.50
2018-07-24T00:49:03.580Z,17.50
2018-07-24T00:51:32.047Z,17.50
2018-07-24T00:54:01.627Z,17.40
2018-07-24T00:56:30.494Z,17.40
2018-07-24T00:58:59.543Z,17.40
2018-07-24T01:01:28.031Z,17.20
2018-07-24T01:03:56.839Z,17.20
2018-07-24T01:06:25.239Z,17.30
2018-07-24T01:08:53.637Z,17.30
2018-07-24T01:11:22.069Z,17.20
2018-07-24T01:13:50.470Z,17.30
2018-07-24T01:16:18.902Z,17.30
2018-07-24T01:18:47.330Z,17.30
2018-07-24T01:21:15.804Z,17.30
2018-07-24T01:23:44.211Z,17.20
2018-07-24T01:26:12.648Z,17.20
2018-07-24T01:28:41.565Z,17.20
2018-07-24T01:31:10.012Z,17.10
2018-07-24T01:33:38.457Z,16.90
2018-07-24T01:36:06.843Z,16.80
2018-07-24T01:38:35.349Z,16.90
2018-07-24T01:41:03.756Z,16.80
2018-07-24T01:43:32.245Z,16.80
2018-07-24T01:46:01.164Z,16.80
2018-07-24T01:48:30.370Z,16.80
2018-07-24T01:50:58.952Z,16.90
2018-07-24T01:53:27.489Z,16.80
2018-07-24T01:55:55.937Z,16.80
2018-07-24T01:58:24.358Z,16.80
2018-07-24T02:00:52.768Z,16.80
2018-07-24T02:03:21.212Z,16.80
2018-07-24T02:05:50.422Z,16.80
2018-07-24T02:08:18.930Z,16.80
2018-07-24T02:10:47.327Z,16.90
2018-07-24T02:13:15.778Z,17.00
2018-07-24T02:15:44.170Z,17.00
2018-07-24T02:18:12.675Z,17.00
2018-07-24T02:20:41.171Z,16.90
2018-07-24T02:26:07.211Z,17.00
2018-07-24T02:28:35.580Z,17.00
2018-07-24T02:31:03.955Z,16.90
2018-07-24T02:33:32.414Z,16.90
2018-07-24T02:36:01.739Z,16.90
2018-07-24T02:38:30.611Z,16.90
2018-07-24T02:40:59.807Z,17.00
2018-07-24T02:43:28.871Z,17.00
2018-07-24T02:45:57.381Z,17.00
2018-07-24T02:48:26.255Z,16.90
2018-07-24T02:50:54.700Z,16.90
2018-07-24T02:53:23.367Z,17.00
2018-07-24T02:55:51.736Z,17.00
2018-07-24T02:58:20.265Z,16.90
2018-07-24T03:00:48.663Z,16.90
2018-07-24T03:03:17.186Z,16.90
2018-07-24T03:05:45.525Z,16.90
2018-07-24T03:08:13.978Z,16.90
2018-07-24T03:10:42.352Z,16.90
2018-07-24T03:13:10.744Z,16.80
2018-07-24T03:15:39.230Z,16.80
2018-07-24T03:18:07.644Z,16.80
2018-07-24T03:20:36.737Z,16.80
2018-07-24T03:23:05.774Z,16.80
2018-07-24T03:25:34.457Z,16.80
2018-07-24T03:28:03.156Z,16.80
2018-07-24T03:30:31.583Z,16.80
2018-07-24T03:33:00.359Z,16.80
2018-07-24T03:35:28.966Z,16.90
2018-07-24T03:37:57.361Z,16.90
2018-07-24T03:40:25.839Z,16.90
2018-07-24T03:42:54.378Z,16.90
2018-07-24T03:45:22.998Z,16.80
2018-07-24T03:47:51.386Z,16.80
2018-07-24T03:50:19.782Z,16.80
2018-07-24T03:52:48.269Z,16.70
2018-07-24T03:55:16.705Z,16.70
2018-07-24T03:57:45.720Z,16.70
2018-07-24T04:00:14.314Z,16.60
2018-07-24T04:02:42.868Z,16.70
2018-07-24T04:05:11.279Z,16.70
2018-07-24T04:10:07.853Z,16.70
2018-07-24T04:12:36.484Z,16.70
2018-07-24T04:15:05.805Z,16.70
2018-07-24T04:17:34.350Z,16.70
2018-07-24T04:20:02.790Z,16.70
2018-07-24T04:22:31.334Z,16.60
2018-07-24T04:25:00.330Z,16.60
2018-07-24T04:27:29.006Z,16.60
2018-07-24T04:29:57.602Z,16.70
2018-07-24T04:32:26.072Z,16.70
2018-07-24T04:34:54.500Z,16.60
2018-07-24T04:37:23.067Z,16.60
2018-07-24T04:39:51.585Z,16.60
2018-07-24T04:42:20.236Z,16.70
2018-07-24T04:44:49.347Z,16.60
2018-07-24T04:47:17.900Z,16.70
2018-07-24T04:49:46.563Z,16.80
2018-07-24T04:52:14.966Z,16.80
2018-07-24T04:54:43.782Z,16.80
2018-07-24T04:57:12.276Z,16.80
2018-07-24T04:59:40.718Z,16.80
2018-07-24T05:02:09.270Z,16.80
2018-07-24T05:04:37.703Z,16.90
2018-07-24T05:07:06.141Z,16.80
2018-07-24T05:09:34.648Z,16.90
2018-07-24T05:12:03.221Z,16.90
2018-07-24T05:14:31.580Z,16.90
2018-07-24T05:17:00.536Z,16.90
2018-07-24T05:19:29.022Z,16.90
2018-07-24T05:21:57.571Z,17.00
2018-07-24T05:24:26.039Z,17.00
2018-07-24T05:26:54.524Z,17.10
2018-07-24T05:29:23.005Z,17.20
2018-07-24T05:31:51.655Z,17.20
2018-07-24T05:34:20.025Z,17.30
2018-07-24T05:36:48.554Z,17.30
2018-07-24T05:39:16.947Z,17.30
2018-07-24T05:41:45.736Z,17.40
2018-07-24T05:44:14.168Z,17.50
2018-07-24T05:46:42.603Z,17.50
2018-07-24T05:49:10.988Z,17.60
2018-07-24T05:51:39.494Z,17.60
2018-07-24T05:54:07.859Z,17.60
2018-07-24T05:56:36.451Z,17.60
2018-07-24T05:59:04.825Z,17.70
2018-07-24T06:01:33.419Z,17.70
2018-07-24T06:04:01.866Z,17.80
2018-07-24T06:06:30.856Z,17.90
2018-07-24T06:08:59.885Z,17.80
2018-07-24T06:11:29.392Z,17.90
2018-07-24T06:13:57.792Z,17.80
2018-07-24T06:16:27.367Z,17.80
2018-07-24T06:18:55.766Z,17.90
2018-07-24T06:21:24.349Z,17.90
2018-07-24T06:23:52.716Z,17.90
2018-07-24T06:26:21.228Z,18.00
2018-07-24T06:28:49.718Z,18.20
2018-07-24T06:31:18.285Z,18.30
2018-07-24T06:33:46.779Z,18.30
2018-07-24T06:36:15.351Z,18.40
2018-07-24T06:38:43.793Z,18.50
2018-07-24T06:41:12.324Z,18.60
2018-07-24T06:43:41.084Z,18.70
2018-07-24T06:46:09.993Z,18.70
2018-07-24T06:48:38.399Z,18.70
2018-07-24T06:51:07.864Z,18.70
2018-07-24T06:53:36.207Z,18.70
2018-07-24T06:56:04.872Z,18.80
2018-07-24T06:58:33.327Z,18.90
2018-07-24T07:01:03.053Z,18.90
2018-07-24T07:03:31.459Z,19.00
2018-07-24T07:06:00.112Z,19.00
2018-07-24T07:08:28.591Z,19.00
2018-07-24T07:10:57.138Z,19.20
2018-07-24T07:13:25.489Z,19.20
2018-07-24T07:15:54.168Z,19.20
2018-07-24T07:18:22.581Z,19.30
2018-07-24T07:20:51.026Z,19.30
2018-07-24T07:23:19.428Z,19.50
2018-07-24T07:25:48.023Z,19.80
2018-07-24T07:28:16.482Z,20.00
2018-07-24T07:30:45.989Z,20.10
2018-07-24T07:33:14.318Z,20.10
2018-07-24T07:35:42.815Z,20.10
2018-07-24T07:38:11.265Z,20.10
2018-07-24T07:40:40.808Z,20.20
2018-07-24T07:43:09.256Z,20.20
2018-07-24T07:45:37.821Z,20.40
2018-07-24T07:48:06.344Z,20.40
2018-07-24T07:50:35.912Z,20.40
2018-07-24T07:53:04.380Z,20.40
2018-07-24T07:55:32.831Z,20.50
2018-07-24T07:58:01.279Z,20.60
2018-07-24T08:00:30.689Z,20.80
2018-07-24T08:02:59.195Z,20.80
2018-07-24T08:05:27.632Z,20.80
2018-07-24T08:07:56.058Z,20.80
2018-07-24T08:10:25.348Z,21.00
2018-07-24T08:12:53.753Z,21.00
2018-07-24T08:15:22.212Z,21.10
2018-07-24T08:17:50.976Z,21.10
2018-07-24T08:20:19.383Z,21.30
2018-07-24T08:25:44.241Z,21.40
2018-07-24T08:28:12.745Z,21.50
2018-07-24T08:30:41.398Z,21.50
2018-07-24T08:33:09.919Z,21.60
2018-07-24T08:35:38.302Z,21.60
2018-07-24T08:38:06.684Z,21.70
2018-07-24T08:40:35.139Z,21.80
2018-07-24T08:43:03.569Z,21.90
2018-07-24T08:45:32.027Z,21.90
2018-07-24T08:48:00.502Z,21.80
2018-07-24T08:50:29.032Z,21.90
2018-07-24T08:52:57.681Z,21.80
2018-07-24T08:55:26.432Z,21.80
2018-07-24T08:57:54.984Z,21.90
2018-07-24T09:00:23.381Z,21.80
2018-07-24T09:02:51.827Z,21.80
2018-07-24T09:05:20.673Z,21.70
2018-07-24T09:07:49.739Z,21.80
2018-07-24T09:10:18.196Z,22.00
2018-07-24T09:12:46.784Z,22.10
2018-07-24T09:15:15.214Z,22.10
2018-07-24T09:17:43.590Z,22.20
2018-07-24T09:20:11.962Z,22.30
2018-07-24T09:22:40.339Z,22.30
2018-07-24T09:25:08.782Z,22.30
2018-07-24T09:27:37.299Z,22.50
2018-07-24T09:30:05.730Z,22.50
2018-07-24T09:35:02.482Z,22.60
2018-07-24T09:37:31.023Z,22.60
2018-07-24T09:39:59.414Z,22.70
2018-07-24T09:42:27.816Z,22.70
2018-07-24T09:44:56.218Z,22.70
2018-07-24T09:47:24.668Z,22.80
2018-07-24T09:49:53.074Z,22.90
2018-07-24T09:52:21.550Z,22.90
2018-07-24T09:54:50.689Z,22.90
2018-07-24T09:57:19.562Z,22.80
2018-07-24T09:59:48.396Z,22.80
2018-07-24T10:02:17.265Z,23.10
2018-07-24T10:04:45.629Z,23.10
2018-07-24T10:07:14.118Z,23.10
2018-07-24T10:09:42.681Z,23.00
2018-07-24T10:12:11.316Z,23.10
2018-07-24T10:14:39.870Z,23.30
2018-07-24T10:17:08.476Z,23.30
2018-07-24T10:19:36.889Z,23.40
2018-07-24T10:22:05.723Z,23.40
2018-07-24T10:24:34.205Z,23.40
2018-07-24T10:27:02.812Z,23.30
2018-07-24T10:29:31.416Z,23.20
2018-07-24T10:31:59.925Z,23.30
2018-07-24T10:34:28.708Z,23.30
2018-07-24T10:36:57.157Z,23.60
2018-07-24T10:39:25.576Z,23.80
2018-07-24T10:41:54.066Z,23.90
2018-07-24T10:44:23.031Z,24.00
2018-07-24T10:46:52.231Z,24.00
2018-07-24T10:49:21.740Z,23.90
2018-07-24T10:51:50.909Z,23.90
2018-07-24T10:54:19.569Z,24.10
2018-07-24T10:56:48.056Z,24.10
2018-07-24T10:59:16.463Z,24.10
2018-07-24T11:01:44.932Z,24.00
2018-07-24T11:04:13.366Z,24.10
2018-07-24T11:06:41.899Z,24.30
2018-07-24T11:09:10.331Z,24.30
2018-07-24T11:11:38.871Z,24.30
2018-07-24T11:14:07.346Z,24.40
2018-07-24T11:16:35.817Z,24.20
2018-07-24T11:19:04.379Z,24.20
2018-07-24T11:21:33.876Z,24.30
2018-07-24T11:24:02.324Z,24.30
2018-07-24T11:26:31.451Z,24.40
2018-07-24T11:28:59.887Z,24.70
2018-07-24T11:31:28.351Z,24.70
2018-07-24T11:33:56.704Z,24.60
2018-07-24T11:36:25.201Z,24.60
2018-07-24T11:38:53.621Z,24.50
2018-07-24T11:41:22.159Z,24.50
2018-07-24T11:43:51.182Z,24.60
2018-07-24T11:46:19.776Z,24.50
2018-07-24T11:48:48.518Z,24.50
2018-07-24T11:51:18.887Z,24.50
2018-07-24T11:53:47.246Z,24.40
2018-07-24T11:56:15.808Z,24.40
2018-07-24T11:58:44.260Z,24.40
2018-07-24T12:01:13.829Z,24.60
2018-07-24T12:03:42.255Z,24.60
2018-07-24T12:06:10.725Z,24.80
2018-07-24T12:08:39.219Z,24.90
2018-07-24T12:11:08.786Z,25.00
2018-07-24T12:13:37.494Z,24.90
2018-07-24T12:16:06.190Z,24.90
2018-07-24T12:18:34.658Z,25.00
2018-07-24T12:21:03.137Z,25.00
2018-07-24T12:23:31.656Z,25.00
2018-07-24T12:26:00.071Z,24.90
2018-07-24T12:28:28.479Z,24.80
2018-07-24T12:30:58.354Z,24.90
2018-07-24T12:33:26.720Z,24.90
2018-07-24T12:35:55.220Z,24.80
2018-07-24T12:38:24.106Z,24.80
2018-07-24T12:40:53.641Z,25.00
2018-07-24T12:43:22.045Z,25.00
2018-07-24T12:45:50.461Z,25.30
2018-07-24T12:48:18.818Z,25.40
2018-07-24T12:50:48.201Z,25.40
2018-07-24T12:53:16.611Z,25.40
2018-07-24T12:55:45.161Z,25.40
2018-07-24T12:58:13.528Z,25.40
2018-07-24T13:00:43.045Z,25.40
2018-07-24T13:03:11.883Z,25.30
2018-07-24T13:05:40.422Z,25.40
2018-07-24T13:08:08.852Z,25.40
2018-07-24T13:10:38.336Z,25.20
2018-07-24T13:13:06.986Z,25.20
2018-07-24T13:15:35.573Z,25.10
2018-07-24T13:18:04.086Z,25.20
2018-07-24T13:20:32.605Z,25.30
2018-07-24T13:23:01.763Z,25.30
2018-07-24T13:25:30.542Z,25.30
2018-07-24T13:27:59.407Z,25.30
2018-07-24T13:30:27.839Z,25.40
2018-07-24T13:32:56.271Z,25.40
2018-07-24T13:35:24.812Z,25.40
2018-07-24T13:37:53.236Z,25.40
2018-07-24T13:40:21.747Z,25.20
2018-07-24T13:42:50.138Z,25.30
2018-07-24T13:45:18.556Z,25.40
2018-07-24T13:47:47.027Z,25.50
2018-07-24T13:50:15.535Z,25.70
2018-07-24T13:52:43.911Z,25.70
2018-07-24T13:55:12.395Z,25.80
2018-07-24T13:57:40.790Z,25.80
2018-07-24T14:00:09.289Z,25.90
2018-07-24T14:02:37.995Z,25.90
2018-07-24T14:05:06.750Z,25.90
2018-07-24T14:07:35.812Z,26.00
2018-07-24T14:10:04.602Z,26.00
2018-07-24T14:12:32.972Z,26.00
2018-07-24T14:15:01.955Z,26.00
2018-07-24T14:17:30.497Z,26.00
2018-07-24T14:19:58.980Z,26.00
2018-07-24T14:22:27.417Z,26.00
2018-07-24T14:24:55.818Z,26.10
2018-07-24T14:27:24.194Z,26.00
2018-07-24T14:29:53.287Z,26.00
2018-07-24T14:32:22.461Z,26.00
2018-07-24T14:34:51.271Z,26.20
2018-07-24T14:37:20.010Z,26.30
2018-07-24T14:39:48.441Z,26.50
2018-07-24T14:42:17.175Z,26.70
2018-07-24T14:44:45.595Z,26.60
2018-07-24T14:47:13.975Z,26.80
2018-07-24T14:49:42.414Z,26.50
2018-07-24T14:52:10.791Z,26.40
2018-07-24T14:54:39.337Z,26.30
2018-07-24T14:57:08.253Z,26.20
2018-07-24T14:59:36.725Z,26.20
2018-07-24T15:02:05.149Z,26.40
2018-07-24T15:04:33.569Z,26.50
2018-07-24T15:07:02.160Z,26.70
2018-07-24T15:09:30.676Z,26.70
2018-07-24T15:11:59.274Z,26.70
2018-07-24T15:14:27.777Z,26.50
2018-07-24T15:16:56.164Z,26.40
2018-07-24T15:19:24.726Z,26.30
2018-07-24T15:21:53.139Z,26.20
2018-07-24T15:24:22.244Z,26.10
2018-07-24T15:26:51.079Z,25.90
2018-07-24T15:29:19.435Z,25.80
2018-07-24T15:31:47.848Z,25.60
2018-07-24T15:34:16.659Z,25.50
2018-07-24T15:36:45.206Z,25.60
2018-07-24T15:39:14.185Z,25.80
2018-07-24T15:41:43.403Z,25.90
2018-07-24T15:44:11.913Z,26.10
2018-07-24T15:46:40.347Z,26.00
2018-07-24T15:49:09.275Z,26.10
2018-07-24T15:51:37.642Z,26.00
2018-07-24T15:54:06.465Z,26.10
2018-07-24T15:56:34.848Z,26.10
2018-07-24T15:59:03.305Z,26.10
2018-07-24T16:03:59.942Z,25.90
2018-07-24T16:06:28.397Z,25.80
2018-07-24T16:08:56.783Z,25.70
2018-07-24T16:11:25.187Z,25.60
2018-07-24T16:16:22.507Z,25.40
2018-07-24T16:18:50.995Z,25.40
2018-07-24T16:21:19.488Z,25.40
2018-07-24T16:23:48.062Z,25.30
2018-07-24T16:26:16.480Z,25.30
2018-07-24T16:28:45.089Z,25.30
2018-07-24T16:31:13.507Z,25.20
2018-07-24T16:33:41.978Z,25.40
2018-07-24T16:36:10.331Z,25.40
2018-07-24T16:38:38.831Z,25.30
2018-07-24T16:41:07.552Z,25.30
2018-07-24T16:43:36.053Z,25.20
2018-07-24T16:46:04.509Z,25.20
2018-07-24T16:48:33.008Z,25.10
2018-07-24T16:51:01.376Z,25.20
2018-07-24T16:53:29.770Z,25.10
2018-07-24T16:55:58.186Z,25.00
2018-07-24T16:58:26.655Z,24.80
2018-07-24T17:00:54.996Z,24.80
2018-07-24T17:03:23.447Z,24.90
2018-07-24T17:05:52.554Z,24.80
2018-07-24T17:08:21.075Z,24.60
2018-07-24T17:10:49.614Z,24.50
2018-07-24T17:13:18.154Z,24.40
2018-07-24T17:15:46.502Z,24.40
2018-07-24T17:18:14.980Z,24.30
2018-07-24T17:20:43.341Z,24.30
2018-07-24T17:23:11.805Z,24.30
2018-07-24T17:25:40.224Z,24.30
2018-07-24T17:28:08.689Z,24.20
2018-07-24T17:30:37.072Z,24.10
2018-07-24T17:33:06.272Z,24.10
2018-07-24T17:35:34.714Z,24.00
2018-07-24T17:38:03.243Z,24.00
2018-07-24T17:40:31.643Z,24.00
2018-07-24T17:43:00.267Z,23.90
2018-07-24T17:45:28.695Z,23.90
2018-07-24T17:47:57.106Z,23.90
2018-07-24T17:50:25.529Z,23.90
2018-07-24T17:52:54.146Z,23.80
2018-07-24T17:55:23.059Z,23.70
2018-07-24T17:57:52.287Z,23.70
2018-07-24T18:00:21.102Z,23.70
2018-07-24T18:02:50.285Z,23.60
2018-07-24T18:05:18.769Z,23.50
2018-07-24T18:07:48.862Z,23.50
2018-07-24T18:10:17.431Z,23.40
2018-07-24T18:12:45.848Z,23.30
2018-07-24T18:15:14.299Z,23.30
2018-07-24T18:17:42.742Z,23.10
2018-07-24T18:20:11.145Z,23.10
2018-07-24T18:22:39.511Z,23.10
2018-07-24T18:25:08.034Z,23.00
2018-07-24T18:27:36.511Z,23.00
2018-07-24T18:30:05.457Z,23.00
2018-07-24T18:32:34.099Z,22.90
2018-07-24T18:35:02.535Z,22.90
2018-07-24T18:37:31.059Z,22.80
2018-07-24T18:39:59.482Z,22.70
2018-07-24T18:42:27.922Z,22.60
2018-07-24T18:44:56.416Z,22.60
2018-07-24T18:47:25.071Z,22.50
2018-07-24T18:49:53.498Z,22.50
2018-07-24T18:52:22.499Z,22.50
2018-07-24T18:54:51.143Z,22.40
2018-07-24T18:57:19.533Z,22.40
2018-07-24T18:59:47.994Z,22.40
2018-07-24T19:02:16.349Z,22.30
2018-07-24T19:04:44.818Z,22.30
2018-07-24T19:07:13.257Z,22.30
2018-07-24T19:09:41.677Z,22.20
2018-07-24T19:12:10.142Z,22.20
2018-07-24T19:14:38.614Z,22.20
2018-07-24T19:17:07.111Z,22.10
2018-07-24T19:19:35.796Z,22.10
2018-07-24T19:22:04.522Z,22.00
2018-07-24T19:24:32.927Z,22.00
2018-07-24T19:27:01.318Z,22.00
2018-07-24T19:29:29.806Z,21.90
2018-07-24T19:31:58.472Z,21.90
2018-07-24T19:34:26.993Z,21.80
2018-07-24T19:36:55.340Z,21.80
2018-07-24T19:39:23.807Z,21.90
2018-07-24T19:41:53.019Z,21.80
2018-07-24T19:44:21.498Z,21.80
2018-07-24T19:46:49.927Z,21.80
2018-07-24T19:49:19.020Z,21.80
2018-07-24T19:51:48.174Z,21.70
2018-07-24T19:54:16.715Z,21.70
2018-07-24T19:56:45.066Z,21.70
2018-07-24T19:59:13.520Z,21.70
2018-07-24T20:01:42.016Z,21.60
2018-07-24T20:04:10.490Z,21.60
2018-07-24T20:06:38.875Z,21.60
2018-07-24T20:09:09.519Z,21.50
2018-07-24T20:11:37.879Z,21.40
2018-07-24T20:14:07.358Z,21.40
2018-07-24T20:16:35.759Z,21.50
2018-07-24T20:19:04.464Z,21.40
2018-07-24T20:21:32.863Z,21.30
2018-07-24T20:24:01.323Z,21.20
2018-07-24T20:26:29.829Z,21.20
2018-07-24T20:28:58.277Z,21.20
2018-07-24T20:31:26.781Z,21.10
2018-07-24T20:33:55.181Z,21.10
2018-07-24T20:36:23.612Z,21.10
2018-07-24T20:38:52.843Z,21.10
2018-07-24T20:41:22.031Z,21.00
2018-07-24T20:43:50.670Z,21.00
2018-07-24T20:46:19.170Z,21.00
2018-07-24T20:48:47.585Z,21.10
2018-07-24T20:51:16.158Z,21.00
2018-07-24T20:53:45.023Z,20.90
2018-07-24T20:56:13.427Z,20.90
2018-07-24T20:58:41.882Z,20.80
2018-07-24T21:01:10.238Z,20.80
2018-07-24T21:03:38.646Z,20.80
2018-07-24T21:06:07.453Z,20.70
2018-07-24T21:08:36.339Z,20.70
2018-07-24T21:11:04.929Z,20.60
2018-07-24T21:13:33.387Z,20.60
2018-07-24T21:16:01.998Z,20.50
2018-07-24T21:18:30.743Z,20.50
2018-07-24T21:20:59.192Z,20.60
2018-07-24T21:23:27.721Z,20.50
2018-07-24T21:25:56.167Z,20.50
2018-07-24T21:28:24.606Z,20.50
2018-07-24T21:30:53.371Z,20.40
2018-07-24T21:33:23.071Z,20.50
2018-07-24T21:35:52.105Z,20.40
2018-07-24T21:38:21.034Z,20.40
2018-07-24T21:40:49.471Z,20.40
2018-07-24T21:43:17.879Z,20.40
2018-07-24T21:45:46.367Z,20.30
2018-07-24T21:48:14.751Z,20.30
2018-07-24T21:50:43.393Z,20.30
2018-07-24T21:53:11.717Z,20.30
2018-07-24T21:55:40.140Z,20.20
2018-07-24T21:58:08.515Z,20.20
2018-07-24T22:00:37.608Z,20.20
2018-07-24T22:03:08.043Z,20.20
2018-07-24T22:05:36.529Z,20.10
2018-07-24T22:08:05.086Z,20.10
2018-07-24T22:10:34.480Z,20.00
2018-07-24T22:13:03.027Z,20.00
2018-07-24T22:15:31.527Z,20.00
2018-07-24T22:17:59.990Z,20.00
2018-07-24T22:20:28.472Z,20.00
2018-07-24T22:22:56.923Z,19.90
2018-07-24T22:25:25.386Z,19.90
2018-07-24T22:27:54.176Z,19.90
2018-07-24T22:30:23.667Z,19.90
2018-07-24T22:32:52.869Z,19.90
2018-07-24T22:35:22.195Z,19.90
2018-07-24T22:37:51.444Z,19.90
2018-07-24T22:42:48.074Z,19.90
2018-07-24T22:45:16.482Z,19.90
2018-07-24T22:47:45.117Z,19.80
2018-07-24T22:50:13.512Z,19.80
2018-07-24T22:52:41.969Z,19.80
2018-07-24T22:55:10.372Z,19.70
2018-07-24T22:57:38.769Z,19.80
2018-07-24T23:00:07.202Z,19.70
2018-07-24T23:02:35.632Z,19.60
2018-07-24T23:05:04.599Z,19.60
2018-07-24T23:07:33.063Z,19.50
2018-07-24T23:10:01.452Z,19.50
2018-07-24T23:12:30.159Z,19.50
2018-07-24T23:14:59.241Z,19.50
2018-07-24T23:17:27.733Z,19.60
2018-07-24T23:19:56.137Z,19.60
2018-07-24T23:22:24.950Z,19.50
2018-07-24T23:24:53.323Z,19.60
2018-07-24T23:27:22.534Z,19.60
2018-07-24T23:29:51.350Z,19.60
2018-07-24T23:32:19.862Z,19.60
2018-07-24T23:34:48.329Z,19.70
2018-07-24T23:37:16.881Z,19.60
2018-07-24T23:39:45.693Z,19.60
2018-07-24T23:42:14.231Z,19.50
2018-07-24T23:44:42.612Z,19.50
2018-07-24T23:47:11.401Z,19.60
2018-07-24T23:49:39.772Z,19.50
2018-07-24T23:52:08.218Z,19.40
2018-07-24T23:54:36.647Z,19.30
2018-07-24T23:57:05.151Z,19.40
2018-07-24T23:59:33.632Z,19.40
